aviador You're here:

VNKT Decoded Metar

KATHMANDU in NEPAL
Report Time2014-10-25 14:50:00
UTC Time2014-10-25 15:15:12
Flight Rules vfr VFR
Wind140° at 05 kt
W.Decomp.*RWY 20: 2.5 kt HW 4.3 kt LCW
W.Rank140° ranks 23
Current wind is above 140° avg. (3.7)
Visibility8000 m
Phenomena:N/A
Clouds:Few 020 Hf
Expected CloudBase > 1,200 ft AGL from Temp-Dew spread
CeilingNone
Temp16°C (ISA +10)
Dew Point13°C (83% RH)
AAT15.2°C
QNH1022 hPa
Density Alt5,433 ft
Elevation4,386 ft
Report Wrong Elevation
Raw Report
METAR VNKT 251450Z 14005KT 8000 FEW020 16/13 Q1022 NOSIG=

Flight School in Barcelona

Extra information for VNKT:More info

Metar Taf Metar & Taf Last 4 Metars F.Rules Stats Wind Profile Meteogram Temp Stats Airport Information Weather charts Add Link Nearby VenuesMetar ALERT Operation Metar Decoded Social comments